createdAt,value
2022-08-07T00:04:48.755Z,15.68
2022-08-07T00:17:37.307Z,15.43
2022-08-07T00:20:44.217Z,15.39
2022-08-07T00:23:22.935Z,15.34
2022-08-07T00:32:28.442Z,15.21
2022-08-07T00:35:05.803Z,15.17
2022-08-07T00:48:08.814Z,14.99
2022-08-07T00:50:46.510Z,14.97
2022-08-07T00:53:55.251Z,14.94
2022-08-07T00:57:20.034Z,14.91
2022-08-07T00:59:59.628Z,14.87
2022-08-07T01:13:07.499Z,14.76
2022-08-07T01:16:05.344Z,14.74
2022-08-07T01:23:09.122Z,14.66
2022-08-07T01:25:56.359Z,14.65
2022-08-07T01:28:59.845Z,14.63
2022-08-07T01:31:59.538Z,14.60
2022-08-07T01:34:47.349Z,14.60
2022-08-07T01:37:26.378Z,14.60
2022-08-07T01:48:20.198Z,14.50
2022-08-07T01:50:43.365Z,14.48
2022-08-07T01:54:08.822Z,14.46
2022-08-07T01:57:24.585Z,14.45
2022-08-07T02:00:13.406Z,14.43
2022-08-07T02:03:21.883Z,14.41
2022-08-07T02:06:31.523Z,14.38
2022-08-07T02:09:58.506Z,14.33
2022-08-07T02:16:16.080Z,14.25
2022-08-07T02:18:54.223Z,14.23
2022-08-07T02:21:58.524Z,14.21
2022-08-07T02:25:01.970Z,14.21
2022-08-07T02:28:12.838Z,14.16
2022-08-07T02:30:51.053Z,14.11
2022-08-07T02:33:42.253Z,14.12
2022-08-07T02:36:49.870Z,14.10
2022-08-07T02:40:36.656Z,14.07
2022-08-07T02:43:16.339Z,14.03
2022-08-07T02:49:56.486Z,13.96
2022-08-07T02:53:03.512Z,13.92
2022-08-07T02:56:28.311Z,13.87
2022-08-07T02:59:37.552Z,13.83
2022-08-07T03:03:05.984Z,13.80
2022-08-07T03:06:16.523Z,13.75
2022-08-07T03:09:43.682Z,13.72
2022-08-07T03:13:07.591Z,13.66
2022-08-07T03:16:36.334Z,13.65
2022-08-07T03:19:17.268Z,13.63
2022-08-07T03:22:44.383Z,13.60
2022-08-07T03:25:40.180Z,13.58
2022-08-07T03:28:37.675Z,13.55
2022-08-07T03:31:43.064Z,13.52
2022-08-07T03:38:21.368Z,13.52
2022-08-07T03:41:41.997Z,13.53
2022-08-07T03:44:53.470Z,13.53
2022-08-07T03:47:56.509Z,13.56
2022-08-07T03:51:03.815Z,13.59
2022-08-07T04:01:03.388Z,13.66
2022-08-07T04:03:53.350Z,13.67
2022-08-07T04:07:23.077Z,13.67
2022-08-07T04:09:58.709Z,13.71
2022-08-07T04:12:39.267Z,13.75
2022-08-07T04:18:59.765Z,13.84
2022-08-07T04:22:13.303Z,13.90
2022-08-07T04:25:19.790Z,13.94
2022-08-07T04:31:20.207Z,14.00
2022-08-07T04:38:18.237Z,13.98
2022-08-07T04:41:25.039Z,13.99
2022-08-07T04:44:12.743Z,14.03
2022-08-07T04:47:57.414Z,14.10
2022-08-07T04:54:30.235Z,14.27
2022-08-07T04:58:09.809Z,14.37
2022-08-07T05:00:52.941Z,14.46
2022-08-07T05:10:58.364Z,14.90
2022-08-07T05:14:52.970Z,15.09
2022-08-07T05:17:50.061Z,15.28
2022-08-07T05:20:46.730Z,15.48
2022-08-07T05:23:54.283Z,15.58
2022-08-07T05:26:35.441Z,15.59
2022-08-07T05:29:51.198Z,15.71
2022-08-07T05:33:21.126Z,15.89
2022-08-07T05:35:55.883Z,16.05
2022-08-07T05:39:00.018Z,16.15
2022-08-07T05:45:19.846Z,16.47
2022-08-07T05:48:03.613Z,16.51
2022-08-07T05:50:43.205Z,16.58
2022-08-07T05:54:13.996Z,16.64
2022-08-07T05:56:54.029Z,16.72
2022-08-07T05:59:55.578Z,16.77
2022-08-07T06:03:14.546Z,16.76
2022-08-07T06:10:06.204Z,16.86
2022-08-07T06:13:16.072Z,16.97
2022-08-07T06:16:21.771Z,17.17
2022-08-07T06:20:03.744Z,17.36
2022-08-07T06:23:46.870Z,17.52
2022-08-07T06:26:10.232Z,17.68
2022-08-07T06:29:06.512Z,17.81
2022-08-07T06:32:16.593Z,17.93
2022-08-07T06:36:11.915Z,18.10
2022-08-07T06:40:16.942Z,18.19
2022-08-07T06:43:04.827Z,18.28
2022-08-07T06:46:00.962Z,18.37
2022-08-07T06:49:51.160Z,18.61
2022-08-07T06:53:00.078Z,19.04
2022-08-07T06:55:59.940Z,19.22
2022-08-07T07:00:13.124Z,19.51
2022-08-07T07:02:08.363Z,19.66
2022-08-07T07:04:55.159Z,19.74
2022-08-07T07:08:23.933Z,19.74
2022-08-07T07:12:07.547Z,19.64
2022-08-07T07:14:19.224Z,19.61
2022-08-07T07:20:22.832Z,19.47
2022-08-07T07:24:09.835Z,19.46
2022-08-07T07:26:35.369Z,19.52
2022-08-07T07:29:55.964Z,19.59
2022-08-07T07:32:46.776Z,19.71
2022-08-07T07:40:18.015Z,19.59
2022-08-07T07:42:56.664Z,19.68
2022-08-07T07:46:38.264Z,19.61
2022-08-07T07:50:31.285Z,19.50
2022-08-07T07:52:33.688Z,19.51
2022-08-07T07:55:37.728Z,19.46
2022-08-07T07:58:26.540Z,19.58
2022-08-07T08:02:01.737Z,19.65
2022-08-07T08:04:20.545Z,19.72
2022-08-07T08:07:02.726Z,19.90
2022-08-07T08:09:52.194Z,20.09
2022-08-07T08:12:52.055Z,20.25
2022-08-07T08:15:26.092Z,20.42
2022-08-07T08:18:17.273Z,20.59
2022-08-07T08:20:51.638Z,20.74
2022-08-07T08:23:46.141Z,20.85
2022-08-07T08:26:39.482Z,21.03
2022-08-07T08:29:17.927Z,21.25
2022-08-07T08:32:04.720Z,21.55
2022-08-07T08:34:46.146Z,21.75
2022-08-07T08:38:00.379Z,21.87
2022-08-07T08:40:23.646Z,21.95
2022-08-07T08:43:09.391Z,21.89
2022-08-07T08:45:59.502Z,21.82
2022-08-07T08:48:41.758Z,21.79
2022-08-07T08:51:49.890Z,21.92
2022-08-07T08:54:18.063Z,22.11
2022-08-07T08:56:52.838Z,22.25
2022-08-07T08:59:42.114Z,22.27
2022-08-07T09:02:36.554Z,22.20
2022-08-07T09:05:36.745Z,22.29
2022-08-07T09:08:28.106Z,22.40
2022-08-07T09:11:14.048Z,22.37
2022-08-07T09:14:06.413Z,22.48
2022-08-07T09:16:50.588Z,22.53
2022-08-07T09:19:52.129Z,22.54
2022-08-07T09:24:54.495Z,22.54
2022-08-07T09:25:54.221Z,22.61
2022-08-07T09:30:02.337Z,22.63
2022-08-07T09:31:33.714Z,22.70
2022-08-07T09:34:17.063Z,22.72
2022-08-07T09:36:56.936Z,22.81
2022-08-07T09:39:55.523Z,22.85
2022-08-07T09:42:39.790Z,22.83
2022-08-07T09:47:23.433Z,22.87
2022-08-07T09:48:25.164Z,22.98
2022-08-07T09:52:16.113Z,23.07
2022-08-07T09:54:21.719Z,23.13
2022-08-07T09:57:31.175Z,23.27
2022-08-07T10:00:14.876Z,23.40
2022-08-07T10:03:08.068Z,23.46
2022-08-07T10:06:11.895Z,23.57
2022-08-07T10:09:34.396Z,23.78
2022-08-07T10:12:26.438Z,23.89
2022-08-07T10:15:18.719Z,24.03
2022-08-07T10:18:03.075Z,24.16
2022-08-07T10:20:44.461Z,24.28
2022-08-07T10:24:05.156Z,24.47
2022-08-07T10:26:53.205Z,24.62
2022-08-07T10:29:45.933Z,24.70
2022-08-07T10:32:52.607Z,24.79
2022-08-07T10:35:56.106Z,24.76
2022-08-07T10:38:47.997Z,24.75
2022-08-07T10:41:46.896Z,24.81
2022-08-07T10:44:28.477Z,24.97
2022-08-07T10:47:26.839Z,25.03
2022-08-07T10:50:18.893Z,25.04
2022-08-07T10:53:08.191Z,25.01
2022-08-07T10:55:47.130Z,24.96
2022-08-07T10:58:40.386Z,24.81
2022-08-07T11:01:23.949Z,24.58
2022-08-07T11:04:11.166Z,24.38
2022-08-07T11:07:15.145Z,24.25
2022-08-07T11:10:07.948Z,24.33
2022-08-07T11:12:49.251Z,24.25
2022-08-07T11:15:37.601Z,24.21
2022-08-07T11:18:19.575Z,24.44
2022-08-07T11:21:00.851Z,24.64
2022-08-07T11:23:48.286Z,24.75
2022-08-07T11:26:26.052Z,24.67
2022-08-07T11:29:13.163Z,24.64
2022-08-07T11:32:08.712Z,24.63
2022-08-07T11:34:48.899Z,24.73
2022-08-07T11:37:38.482Z,24.91
2022-08-07T11:40:36.408Z,24.98
2022-08-07T11:43:19.214Z,25.07
2022-08-07T11:46:33.783Z,25.22
2022-08-07T11:50:25.360Z,25.20
2022-08-07T11:53:05.009Z,25.43
2022-08-07T11:56:28.705Z,25.65
2022-08-07T12:03:46.043Z,25.72
2022-08-07T12:07:10.140Z,25.78
2022-08-07T12:10:12.590Z,25.79
2022-08-07T12:13:01.291Z,25.71
2022-08-07T12:16:09.426Z,25.83
2022-08-07T12:18:53.526Z,25.83
2022-08-07T12:21:55.811Z,25.59
2022-08-07T12:26:02.953Z,25.66
2022-08-07T12:34:49.299Z,25.89
2022-08-07T12:38:11.467Z,25.90
2022-08-07T12:40:57.677Z,25.98
2022-08-07T12:47:46.127Z,26.14
2022-08-07T12:50:54.392Z,26.27
2022-08-07T12:54:03.241Z,26.33
2022-08-07T12:56:40.698Z,26.22
2022-08-07T12:59:54.366Z,26.08
2022-08-07T13:03:07.869Z,25.84
2022-08-07T13:06:04.505Z,25.79
2022-08-07T13:09:12.585Z,25.76
2022-08-07T13:16:06.441Z,25.80
2022-08-07T13:18:55.301Z,25.95
2022-08-07T13:25:30.035Z,25.87
2022-08-07T13:28:18.161Z,25.79
2022-08-07T13:31:23.688Z,25.72
2022-08-07T13:35:00.220Z,25.59
2022-08-07T13:38:24.458Z,25.54
2022-08-07T13:48:06.934Z,25.61
2022-08-07T13:54:25.024Z,25.55
2022-08-07T14:00:54.708Z,25.44
2022-08-07T14:04:07.570Z,25.82
2022-08-07T14:07:13.711Z,26.59
2022-08-07T14:10:01.533Z,27.11
2022-08-07T14:16:30.994Z,28.47
2022-08-07T14:20:38.241Z,28.93
2022-08-07T14:22:42.768Z,29.28
2022-08-07T14:25:29.407Z,29.41
2022-08-07T14:38:59.355Z,29.53
2022-08-07T14:42:19.506Z,29.06
2022-08-07T14:48:48.375Z,28.17
2022-08-07T14:58:34.371Z,28.38
2022-08-07T15:04:37.325Z,29.26
2022-08-07T15:10:58.588Z,30.01
2022-08-07T15:14:09.907Z,30.38
2022-08-07T15:17:21.419Z,30.45
2022-08-07T15:25:16.103Z,29.64
2022-08-07T15:26:28.692Z,29.20
2022-08-07T15:30:06.525Z,29.03
2022-08-07T15:36:04.770Z,28.79
2022-08-07T15:38:58.917Z,28.73
2022-08-07T15:42:45.754Z,29.03
2022-08-07T15:45:56.251Z,29.33
2022-08-07T15:48:36.557Z,29.32
2022-08-07T15:54:39.560Z,28.67
2022-08-07T15:57:52.631Z,28.27
2022-08-07T16:08:51.060Z,26.96
2022-08-07T16:15:56.398Z,27.03
2022-08-07T16:22:33.392Z,27.38
2022-08-07T16:25:57.396Z,27.49
2022-08-07T16:30:11.826Z,27.47
2022-08-07T16:32:54.587Z,27.53
2022-08-07T16:36:06.104Z,27.46
2022-08-07T16:39:02.185Z,27.16
2022-08-07T16:50:28.319Z,26.34
2022-08-07T16:54:06.359Z,26.08
2022-08-07T16:58:00.896Z,25.83
2022-08-07T17:00:55.502Z,25.55
2022-08-07T17:04:51.093Z,25.23
2022-08-07T17:08:02.335Z,24.93
2022-08-07T17:11:05.797Z,24.69
2022-08-07T17:14:19.005Z,24.51
2022-08-07T17:17:47.845Z,24.07
2022-08-07T17:24:27.182Z,23.59
2022-08-07T17:30:58.020Z,23.25
2022-08-07T17:34:15.341Z,23.09
2022-08-07T17:36:57.996Z,22.92
2022-08-07T17:40:50.702Z,22.71
2022-08-07T17:47:38.346Z,22.38
2022-08-07T17:51:03.557Z,22.19
2022-08-07T17:54:13.503Z,22.03
2022-08-07T18:15:12.432Z,21.05
2022-08-07T18:21:00.801Z,20.96
2022-08-07T18:24:54.767Z,20.69
2022-08-07T18:27:58.597Z,20.59
2022-08-07T18:34:40.807Z,20.28
2022-08-07T18:38:58.810Z,20.14
2022-08-07T18:41:16.754Z,20.04
2022-08-07T18:44:04.249Z,19.96
2022-08-07T18:47:00.210Z,19.91
2022-08-07T18:50:30.304Z,19.85
2022-08-07T18:53:13.932Z,19.70
2022-08-07T18:56:57.835Z,19.49
2022-08-07T19:00:34.045Z,19.33
2022-08-07T19:03:16.856Z,19.20
2022-08-07T19:06:04.769Z,19.07
2022-08-07T19:08:55.616Z,18.94
2022-08-07T19:15:01.946Z,18.72
2022-08-07T19:17:59.072Z,18.61
2022-08-07T19:21:10.125Z,18.52
2022-08-07T19:28:56.431Z,18.30
2022-08-07T19:31:00.297Z,18.18
2022-08-07T19:37:18.038Z,17.93
2022-08-07T19:40:17.281Z,17.86
2022-08-07T19:43:21.936Z,17.81
2022-08-07T19:46:21.217Z,17.72
2022-08-07T19:49:09.279Z,17.66
2022-08-07T19:51:50.803Z,17.59
2022-08-07T19:54:44.351Z,17.52
2022-08-07T20:00:34.484Z,17.37
2022-08-07T20:03:34.937Z,17.31
2022-08-07T20:10:37.289Z,17.18
2022-08-07T20:12:32.227Z,17.11
2022-08-07T20:15:41.411Z,17.05
2022-08-07T20:18:20.109Z,16.99
2022-08-07T20:20:53.411Z,16.93
2022-08-07T20:23:41.923Z,16.88
2022-08-07T20:26:32.425Z,16.86
2022-08-07T20:29:57.446Z,16.79
2022-08-07T20:33:03.075Z,16.72
2022-08-07T20:35:52.006Z,16.68
2022-08-07T20:38:32.173Z,16.61
2022-08-07T20:44:41.515Z,16.50
2022-08-07T20:47:25.146Z,16.43
2022-08-07T20:50:05.629Z,16.38
2022-08-07T20:52:51.266Z,16.33
2022-08-07T20:55:28.320Z,16.30
2022-08-07T20:58:39.168Z,16.26
2022-08-07T21:01:19.911Z,16.23
2022-08-07T21:08:19.983Z,16.25
2022-08-07T21:11:12.272Z,16.29
2022-08-07T21:18:17.284Z,16.34
2022-08-07T21:20:56.488Z,16.33
2022-08-07T21:24:21.090Z,16.30
2022-08-07T21:27:39.895Z,16.26
2022-08-07T21:30:30.142Z,16.21
2022-08-07T21:33:38.268Z,16.18
2022-08-07T21:36:34.540Z,16.11
2022-08-07T21:39:46.853Z,16.06
2022-08-07T21:42:46.061Z,16.02
2022-08-07T21:46:10.941Z,16.00
2022-08-07T21:48:57.446Z,15.98
2022-08-07T21:51:54.755Z,15.96
2022-08-07T21:55:01.167Z,15.98
2022-08-07T21:58:12.053Z,16.06
2022-08-07T22:04:53.595Z,16.16
2022-08-07T22:07:31.599Z,16.21
2022-08-07T22:10:37.002Z,16.29
2022-08-07T22:13:52.898Z,16.28
2022-08-07T22:16:44.044Z,16.27
2022-08-07T22:23:24.640Z,16.23
2022-08-07T22:26:12.651Z,16.20
2022-08-07T22:32:57.009Z,16.13
2022-08-07T22:35:55.292Z,16.11
2022-08-07T22:46:21.407Z,15.91
2022-08-07T22:49:51.654Z,15.81
2022-08-07T22:53:16.663Z,15.70
2022-08-07T23:07:46.617Z,15.53
2022-08-07T23:21:36.909Z,15.21
2022-08-07T23:24:30.926Z,15.13
2022-08-07T23:28:22.686Z,15.07
2022-08-07T23:31:06.383Z,15.00
2022-08-07T23:34:22.418Z,14.94
2022-08-07T23:37:22.534Z,14.86
2022-08-07T23:40:49.300Z,14.80
2022-08-07T23:47:25.081Z,14.68
2022-08-07T23:57:43.295Z,14.49
